Time;durP1;ratioP1;P1;durP2;ratioP2;P2;SDS_P1;SDS_P2;PMS_P1;PMS_P2;Temp;Humidity;BMP_temperature;BMP_pressure;BME280_temperature;BME280_humidity;BME280_pressure;Samples;Min_cycle;Max_cycle;Signal;HPM_P1;HPM_P2
2021/04/25 00:00:20;;;;;;;7.00;6.23;;;;;;;;;;2098572;28;20200;-58
2021/04/25 00:01:21;;;;;;;8.40;6.57;;;;;;;;;;2099687;28;20175;-60
2021/04/25 00:02:21;;;;;;;8.03;6.23;;;;;;;;;;2093152;28;20286;-61
2021/04/25 00:03:21;;;;;;;9.37;6.03;;;;;;;;;;2101838;28;20269;-61
2021/04/25 00:04:22;;;;;;;7.43;5.77;;;;;;;;;;2101938;28;20179;-61
2021/04/25 00:05:22;;;;;;;6.40;5.37;;;;;;;;;;2101138;28;20222;-60
2021/04/25 00:06:22;;;;;;;7.33;5.43;;;;;;;;;;2092874;28;20253;-59
2021/04/25 00:07:23;;;;;;;6.60;5.60;;;;;;;;;;2100827;28;20195;-57
2021/04/25 00:08:23;;;;;;;8.77;5.00;;;;;;;;;;2105468;28;20780;-60
2021/04/25 00:09:23;;;;;;;7.40;5.30;;;;;;;;;;2107774;28;20174;-57
2021/04/25 00:10:24;;;;;;;7.40;4.90;;;;;;;;;;2107727;28;20185;-59
2021/04/25 00:11:24;;;;;;;6.23;4.87;;;;;;;;;;2107510;28;20212;-58
2021/04/25 00:12:25;;;;;;;8.60;5.33;;;;;;;;;;2099151;28;20210;-58
2021/04/25 00:13:25;;;;;;;5.37;4.87;;;;;;;;;;2098743;28;20495;-59
2021/04/25 00:14:26;;;;;;;8.40;4.77;;;;;;;;;;2099044;28;20179;-60
2021/04/25 00:15:26;;;;;;;8.60;5.63;;;;;;;;;;2099128;28;20224;-58
2021/04/25 00:16:28;;;;;;;5.27;4.40;;;;;;;;;;2098102;28;20162;-62
2021/04/25 00:17:29;;;;;;;5.40;4.87;;;;;;;;;;2103479;28;20178;-63
2021/04/25 00:18:29;;;;;;;6.10;4.97;;;;;;;;;;2106035;28;20178;-55
2021/04/25 00:19:29;;;;;;;7.30;5.70;;;;;;;;;;2106405;28;20197;-58
2021/04/25 00:20:29;;;;;;;7.37;5.93;;;;;;;;;;2106298;28;20239;-58
2021/04/25 00:21:30;;;;;;;5.47;4.97;;;;;;;;;;2105126;28;20174;-61
2021/04/25 00:22:30;;;;;;;7.93;5.73;;;;;;;;;;2104919;28;20175;-60
2021/04/25 00:23:30;;;;;;;9.67;5.57;;;;;;;;;;2103722;28;20235;-59
2021/04/25 00:24:30;;;;;;;6.90;5.53;;;;;;;;;;2104256;28;20170;-59
2021/04/25 00:25:31;;;;;;;7.17;5.03;;;;;;;;;;2105251;28;20177;-59
2021/04/25 00:26:31;;;;;;;7.33;5.20;;;;;;;;;;2106424;28;20280;-58
2021/04/25 00:27:31;;;;;;;8.30;5.50;;;;;;;;;;2104268;28;20247;-58
2021/04/25 00:28:32;;;;;;;7.93;4.87;;;;;;;;;;2104455;28;20257;-58
2021/04/25 00:29:32;;;;;;;8.63;5.13;;;;;;;;;;2103902;28;20174;-60
2021/04/25 00:30:32;;;;;;;7.40;5.07;;;;;;;;;;2104547;28;20174;-59
2021/04/25 00:31:33;;;;;;;9.33;5.13;;;;;;;;;;2104770;28;20166;-58
2021/04/25 00:32:33;;;;;;;10.23;4.73;;;;;;;;;;2106515;28;20638;-59
2021/04/25 00:33:34;;;;;;;7.13;5.27;;;;;;;;;;2105279;28;20178;-60
2021/04/25 00:34:34;;;;;;;7.10;4.77;;;;;;;;;;2106144;28;20667;-63
2021/04/25 00:35:35;;;;;;;7.50;4.83;;;;;;;;;;2103627;28;20269;-62
2021/04/25 00:36:35;;;;;;;6.80;5.33;;;;;;;;;;2105647;28;20205;-64
2021/04/25 00:37:36;;;;;;;7.73;5.40;;;;;;;;;;2097382;28;20171;-61
2021/04/25 00:38:36;;;;;;;7.83;5.30;;;;;;;;;;2095336;28;20647;-63
2021/04/25 00:39:36;;;;;;;6.57;5.40;;;;;;;;;;2104873;28;20170;-60
2021/04/25 00:40:36;;;;;;;8.43;5.10;;;;;;;;;;2105094;28;20535;-60
2021/04/25 00:41:37;;;;;;;7.30;5.67;;;;;;;;;;2105438;28;20170;-60
2021/04/25 00:42:37;;;;;;;8.23;5.67;;;;;;;;;;2104653;28;20170;-60
2021/04/25 00:43:37;;;;;;;7.00;5.23;;;;;;;;;;2100730;28;20181;-60
2021/04/25 00:44:37;;;;;;;5.67;5.07;;;;;;;;;;2104457;28;20253;-59
2021/04/25 00:45:38;;;;;;;6.77;5.13;;;;;;;;;;2106691;28;20717;-59
2021/04/25 00:46:38;;;;;;;7.17;5.47;;;;;;;;;;2101840;28;20212;-60
2021/04/25 00:47:39;;;;;;;8.07;6.07;;;;;;;;;;2105121;28;20166;-61
2021/04/25 00:48:39;;;;;;;7.60;5.53;;;;;;;;;;2102790;28;20171;-61
2021/04/25 00:49:40;;;;;;;5.60;5.00;;;;;;;;;;2103705;28;20178;-62
2021/04/25 00:50:41;;;;;;;7.20;5.90;;;;;;;;;;2105851;28;20166;-62
2021/04/25 00:51:41;;;;;;;7.20;6.10;;;;;;;;;;2106039;28;20174;-61
2021/04/25 00:52:43;;;;;;;9.53;5.83;;;;;;;;;;2102535;28;21940;-59
2021/04/25 00:53:45;;;;;;;9.73;6.17;;;;;;;;;;2104728;28;20177;-61
2021/04/25 00:54:46;;;;;;;9.03;7.80;;;;;;;;;;2097829;28;20654;-61
2021/04/25 00:55:46;;;;;;;7.17;6.40;;;;;;;;;;2105525;28;20166;-61
2021/04/25 00:56:47;;;;;;;7.30;6.23;;;;;;;;;;2106411;28;20179;-59
2021/04/25 00:57:47;;;;;;;9.47;8.60;;;;;;;;;;2106572;28;20166;-61
2021/04/25 00:58:48;;;;;;;9.70;7.43;;;;;;;;;;2106602;28;20620;-61
2021/04/25 00:59:48;;;;;;;6.90;6.20;;;;;;;;;;2105451;28;20236;-62
2021/04/25 01:00:49;;;;;;;6.70;5.43;;;;;;;;;;2105923;28;20167;-62
2021/04/25 01:01:49;;;;;;;7.03;5.50;;;;;;;;;;2105447;28;20192;-61
2021/04/25 01:02:49;;;;;;;6.27;5.37;;;;;;;;;;2105416;28;20167;-59
2021/04/25 01:03:49;;;;;;;6.80;5.90;;;;;;;;;;2096925;28;20243;-62
2021/04/25 01:04:50;;;;;;;5.30;4.80;;;;;;;;;;2103419;28;20689;-62
2021/04/25 01:05:50;;;;;;;10.53;5.50;;;;;;;;;;2107088;28;20154;-59
2021/04/25 01:06:50;;;;;;;8.57;5.80;;;;;;;;;;2100098;28;20569;-61
2021/04/25 01:07:51;;;;;;;7.60;5.27;;;;;;;;;;2106695;28;20163;-56
2021/04/25 01:08:51;;;;;;;9.60;5.27;;;;;;;;;;2106413;28;20170;-60
2021/04/25 01:09:51;;;;;;;6.33;5.30;;;;;;;;;;2096850;28;20179;-58
2021/04/25 01:10:52;;;;;;;8.77;6.20;;;;;;;;;;2096908;28;20213;-61
2021/04/25 01:11:52;;;;;;;7.33;5.30;;;;;;;;;;2106383;28;20244;-60
2021/04/25 01:12:52;;;;;;;6.03;5.33;;;;;;;;;;2113192;22;20605;-58
2021/04/25 01:13:53;;;;;;;7.17;5.43;;;;;;;;;;2104647;28;20231;-58
2021/04/25 01:14:53;;;;;;;6.17;5.50;;;;;;;;;;2097112;28;20822;-54
2021/04/25 01:15:53;;;;;;;6.90;5.53;;;;;;;;;;2097068;28;20197;-58
2021/04/25 01:16:53;;;;;;;8.97;5.90;;;;;;;;;;2106010;28;20253;-58
2021/04/25 01:17:54;;;;;;;7.40;5.17;;;;;;;;;;2105923;28;20271;-56
2021/04/25 01:18:54;;;;;;;7.00;4.97;;;;;;;;;;2104955;28;20172;-57
2021/04/25 01:19:57;;;;;;;10.40;5.33;;;;;;;;;;2105289;28;20189;-59
2021/04/25 01:21:04;;;;;;;7.90;5.37;;;;;;;;;;2097930;28;20221;-60
2021/04/25 01:22:05;;;;;;;5.60;5.10;;;;;;;;;;2098742;28;20177;-60
2021/04/25 01:23:05;;;;;;;7.33;5.43;;;;;;;;;;2106102;28;20210;-60
2021/04/25 01:24:06;;;;;;;6.47;5.50;;;;;;;;;;2105105;28;20658;-60
2021/04/25 01:25:07;;;;;;;6.80;5.50;;;;;;;;;;2095524;28;20512;-60
2021/04/25 01:26:08;;;;;;;6.10;4.60;;;;;;;;;;2100037;28;20183;-56
2021/04/25 01:27:08;;;;;;;7.03;4.67;;;;;;;;;;2105160;28;20585;-59
2021/04/25 01:28:09;;;;;;;5.67;4.23;;;;;;;;;;2105826;28;20190;-58
2021/04/25 01:29:09;;;;;;;7.60;5.10;;;;;;;;;;2104688;28;20276;-58
2021/04/25 01:30:10;;;;;;;7.77;4.33;;;;;;;;;;2104713;28;20182;-57
2021/04/25 01:31:10;;;;;;;7.53;4.63;;;;;;;;;;2102240;28;20642;-58
2021/04/25 01:32:11;;;;;;;6.57;5.13;;;;;;;;;;2103443;28;20267;-57
2021/04/25 01:33:11;;;;;;;8.30;4.83;;;;;;;;;;2105144;28;20197;-54
2021/04/25 01:34:12;;;;;;;5.60;5.00;;;;;;;;;;2104173;28;20170;-56
2021/04/25 01:35:14;;;;;;;8.33;5.10;;;;;;;;;;2105825;28;20162;-58
2021/04/25 01:36:14;;;;;;;5.47;4.90;;;;;;;;;;2105316;28;20197;-58
2021/04/25 01:37:15;;;;;;;5.80;4.77;;;;;;;;;;2105870;28;20700;-57
2021/04/25 01:38:15;;;;;;;7.00;4.80;;;;;;;;;;2105556;28;20189;-58
2021/04/25 01:39:16;;;;;;;6.97;4.47;;;;;;;;;;2105018;28;20178;-59
2021/04/25 01:40:18;;;;;;;7.23;5.07;;;;;;;;;;2102465;28;20732;-57
2021/04/25 01:41:19;;;;;;;5.87;4.90;;;;;;;;;;2105111;28;20166;-54
2021/04/25 01:42:19;;;;;;;7.07;5.00;;;;;;;;;;2105108;28;20751;-58
2021/04/25 01:43:19;;;;;;;6.80;4.87;;;;;;;;;;2105980;28;20260;-57
2021/04/25 01:44:20;;;;;;;6.73;5.23;;;;;;;;;;2105800;28;20257;-59
2021/04/25 01:45:20;;;;;;;6.50;4.77;;;;;;;;;;2105885;28;20261;-57
2021/04/25 01:46:21;;;;;;;7.83;5.17;;;;;;;;;;2099709;28;20223;-59
2021/04/25 01:47:22;;;;;;;7.23;4.70;;;;;;;;;;2103693;28;20240;-59
2021/04/25 01:48:22;;;;;;;7.03;4.50;;;;;;;;;;2105627;28;20252;-57
2021/04/25 01:49:22;;;;;;;6.70;4.47;;;;;;;;;;2105132;28;20247;-58
2021/04/25 01:50:23;;;;;;;5.00;4.53;;;;;;;;;;2106226;28;20642;-58
2021/04/25 01:51:24;;;;;;;5.10;4.47;;;;;;;;;;2105437;28;20539;-59
2021/04/25 01:52:24;;;;;;;5.77;4.80;;;;;;;;;;2104367;28;20178;-59
2021/04/25 01:53:24;;;;;;;8.03;5.20;;;;;;;;;;2101680;28;20190;-58
2021/04/25 01:54:24;;;;;;;7.10;4.70;;;;;;;;;;2101986;28;20666;-57
2021/04/25 01:55:26;;;;;;;8.67;5.17;;;;;;;;;;2106064;28;20178;-58
2021/04/25 01:56:26;;;;;;;5.00;4.60;;;;;;;;;;2104137;28;21049;-60
2021/04/25 01:57:26;;;;;;;5.47;4.73;;;;;;;;;;2104395;28;20177;-59
2021/04/25 01:58:27;;;;;;;7.30;5.00;;;;;;;;;;2104824;28;20224;-58
2021/04/25 01:59:27;;;;;;;5.03;4.50;;;;;;;;;;2106134;28;20222;-60
2021/04/25 02:00:41;;;;;;;6.20;4.87;;;;;;;;;;2103240;28;20190;-61
2021/04/25 02:01:41;;;;;;;5.70;4.60;;;;;;;;;;2105742;28;20165;-55
2021/04/25 02:02:43;;;;;;;8.57;4.77;;;;;;;;;;2103092;28;20194;-59
2021/04/25 02:03:43;;;;;;;6.70;4.90;;;;;;;;;;2104787;28;20692;-58
2021/04/25 02:04:43;;;;;;;6.93;4.90;;;;;;;;;;2105337;28;20219;-57
2021/04/25 02:05:44;;;;;;;5.67;5.00;;;;;;;;;;2103074;28;20202;-56
2021/04/25 02:06:44;;;;;;;11.13;5.43;;;;;;;;;;2104609;28;20181;-56
2021/04/25 02:07:44;;;;;;;4.93;4.40;;;;;;;;;;2099072;28;20177;-55
2021/04/25 02:08:44;;;;;;;7.67;4.57;;;;;;;;;;2105441;28;20189;-59
2021/04/25 02:09:45;;;;;;;6.70;4.37;;;;;;;;;;2106246;28;20178;-58
2021/04/25 02:10:45;;;;;;;5.77;4.50;;;;;;;;;;2098313;28;20202;-56
2021/04/25 02:11:45;;;;;;;5.47;4.20;;;;;;;;;;2097249;28;20190;-58
2021/04/25 02:12:46;;;;;;;5.30;4.80;;;;;;;;;;2105139;28;20220;-57
2021/04/25 02:13:46;;;;;;;4.83;4.33;;;;;;;;;;2097797;28;20323;-59
2021/04/25 02:14:46;;;;;;;5.53;4.23;;;;;;;;;;2105860;28;20171;-59
2021/04/25 02:15:47;;;;;;;7.30;4.63;;;;;;;;;;2105534;28;20281;-58
2021/04/25 02:16:47;;;;;;;6.17;4.23;;;;;;;;;;2104369;28;20166;-58
2021/04/25 02:17:47;;;;;;;4.63;4.10;;;;;;;;;;2105842;28;20182;-56
2021/04/25 02:18:47;;;;;;;5.33;3.93;;;;;;;;;;2105419;28;20189;-59
2021/04/25 02:19:48;;;;;;;6.43;4.87;;;;;;;;;;2105488;28;20216;-60
2021/04/25 02:20:48;;;;;;;6.20;3.90;;;;;;;;;;2104934;28;20178;-59
2021/04/25 02:21:48;;;;;;;23.07;6.07;;;;;;;;;;2105648;28;20243;-59
2021/04/25 02:22:49;;;;;;;10.37;4.90;;;;;;;;;;2105398;28;20182;-55
2021/04/25 02:23:49;;;;;;;5.23;4.37;;;;;;;;;;2104451;28;20659;-59
2021/04/25 02:24:49;;;;;;;7.37;4.47;;;;;;;;;;2098307;28;20677;-63
2021/04/25 02:25:50;;;;;;;4.57;3.83;;;;;;;;;;2104620;28;20159;-61
2021/04/25 02:26:50;;;;;;;7.13;4.60;;;;;;;;;;2104904;28;20522;-61
2021/04/25 02:27:51;;;;;;;5.43;4.10;;;;;;;;;;2104672;28;20614;-60
2021/04/25 02:28:52;;;;;;;10.77;4.80;;;;;;;;;;2104917;28;20620;-56
2021/04/25 02:29:52;;;;;;;9.10;3.83;;;;;;;;;;2104421;28;20166;-59
2021/04/25 02:30:52;;;;;;;5.77;4.27;;;;;;;;;;2106108;28;20649;-61
2021/04/25 02:31:53;;;;;;;6.17;4.17;;;;;;;;;;2105218;28;20197;-57
2021/04/25 02:32:53;;;;;;;5.37;3.90;;;;;;;;;;2100158;28;20221;-56
2021/04/25 02:33:54;;;;;;;6.43;4.53;;;;;;;;;;2104751;28;20185;-58
2021/04/25 02:34:54;;;;;;;7.20;3.93;;;;;;;;;;2106197;28;20154;-56
2021/04/25 02:35:54;;;;;;;7.37;4.20;;;;;;;;;;2104846;28;20351;-57
2021/04/25 02:36:54;;;;;;;7.53;4.63;;;;;;;;;;2104743;28;20185;-59
2021/04/25 02:37:55;;;;;;;6.03;4.37;;;;;;;;;;2103000;28;20178;-58
2021/04/25 02:38:55;;;;;;;5.90;4.37;;;;;;;;;;2105477;28;20654;-58
2021/04/25 02:39:56;;;;;;;7.37;4.67;;;;;;;;;;2102831;28;20646;-60
2021/04/25 02:40:56;;;;;;;5.77;4.60;;;;;;;;;;2106042;28;20214;-57
2021/04/25 02:41:56;;;;;;;5.93;4.30;;;;;;;;;;2104858;28;20217;-59
2021/04/25 02:42:57;;;;;;;7.23;4.50;;;;;;;;;;2105269;28;20182;-58
2021/04/25 02:43:57;;;;;;;10.57;4.37;;;;;;;;;;2104460;28;20268;-60
2021/04/25 02:44:57;;;;;;;6.40;4.40;;;;;;;;;;2105421;28;20165;-57
2021/04/25 02:45:58;;;;;;;9.00;4.93;;;;;;;;;;2105093;28;20525;-55
2021/04/25 02:46:58;;;;;;;11.00;4.70;;;;;;;;;;2105200;28;20194;-59
2021/04/25 02:48:00;;;;;;;9.10;4.50;;;;;;;;;;2105472;28;20220;-59
2021/04/25 02:49:00;;;;;;;8.00;5.00;;;;;;;;;;2105860;28;20213;-58
2021/04/25 02:50:01;;;;;;;9.80;4.87;;;;;;;;;;2105059;28;20186;-59
2021/04/25 02:51:01;;;;;;;7.03;4.40;;;;;;;;;;2104990;28;20674;-59
2021/04/25 02:52:01;;;;;;;6.83;4.70;;;;;;;;;;2105452;28;20227;-56
2021/04/25 02:53:02;;;;;;;5.17;4.27;;;;;;;;;;2103972;28;20721;-60
2021/04/25 02:54:02;;;;;;;8.70;4.70;;;;;;;;;;2105533;28;20166;-57
2021/04/25 02:55:03;;;;;;;8.43;4.67;;;;;;;;;;2098550;28;20898;-56
2021/04/25 02:56:03;;;;;;;8.57;4.67;;;;;;;;;;2104774;28;20170;-59
2021/04/25 02:57:04;;;;;;;7.03;4.00;;;;;;;;;;2100504;28;20185;-60
2021/04/25 02:58:05;;;;;;;5.03;4.53;;;;;;;;;;2106160;28;20311;-63
2021/04/25 02:59:05;;;;;;;10.13;4.70;;;;;;;;;;2103862;28;20713;-56
2021/04/25 03:00:07;;;;;;;8.73;4.83;;;;;;;;;;2099474;28;20171;-61
2021/04/25 03:01:07;;;;;;;7.80;4.87;;;;;;;;;;2104470;28;20278;-60
2021/04/25 03:02:07;;;;;;;6.13;4.30;;;;;;;;;;2096357;28;20167;-58
2021/04/25 03:03:08;;;;;;;5.13;4.60;;;;;;;;;;2102532;28;20702;-57
2021/04/25 03:04:08;;;;;;;5.83;4.40;;;;;;;;;;2099362;28;20689;-60
2021/04/25 03:05:09;;;;;;;6.47;4.57;;;;;;;;;;2104775;28;20178;-59
2021/04/25 03:06:09;;;;;;;5.70;4.10;;;;;;;;;;2105391;28;20190;-56
2021/04/25 03:07:09;;;;;;;5.17;4.60;;;;;;;;;;2105170;28;20203;-59
2021/04/25 03:08:09;;;;;;;7.23;4.53;;;;;;;;;;2107033;28;20194;-59
2021/04/25 03:09:10;;;;;;;8.97;4.47;;;;;;;;;;2106649;28;20178;-58
2021/04/25 03:10:10;;;;;;;4.80;4.40;;;;;;;;;;2106847;28;20189;-59
2021/04/25 03:11:11;;;;;;;11.67;5.10;;;;;;;;;;2106092;28;20182;-61
2021/04/25 03:12:11;;;;;;;4.93;4.47;;;;;;;;;;2107104;28;20253;-61
2021/04/25 03:13:11;;;;;;;10.10;5.27;;;;;;;;;;2105837;28;20777;-60
2021/04/25 03:14:11;;;;;;;5.43;4.67;;;;;;;;;;2106922;28;20739;-57
2021/04/25 03:15:13;;;;;;;6.63;4.50;;;;;;;;;;2106425;28;20572;-57
2021/04/25 03:16:13;;;;;;;9.27;4.70;;;;;;;;;;2106581;28;20183;-60
2021/04/25 03:17:14;;;;;;;6.83;4.37;;;;;;;;;;2104554;28;20294;-59
2021/04/25 03:18:14;;;;;;;5.37;3.90;;;;;;;;;;2106932;28;20205;-56
2021/04/25 03:19:14;;;;;;;4.70;3.90;;;;;;;;;;2105105;28;20186;-59
2021/04/25 03:20:16;;;;;;;7.07;4.47;;;;;;;;;;2107475;28;20556;-58
2021/04/25 03:21:16;;;;;;;13.20;4.80;;;;;;;;;;2104771;28;20178;-58
2021/04/25 03:22:16;;;;;;;4.47;3.80;;;;;;;;;;2107587;28;20239;-55
2021/04/25 03:23:17;;;;;;;6.67;4.40;;;;;;;;;;2109024;28;20266;-59
2021/04/25 03:24:19;;;;;;;9.73;4.73;;;;;;;;;;2106157;28;20654;-58
2021/04/25 03:25:19;;;;;;;4.60;3.80;;;;;;;;;;2102857;28;20187;-57
2021/04/25 03:26:19;;;;;;;5.83;3.97;;;;;;;;;;2106245;28;20257;-60
2021/04/25 03:27:20;;;;;;;6.73;4.40;;;;;;;;;;2102940;28;20230;-58
2021/04/25 03:28:20;;;;;;;5.87;3.90;;;;;;;;;;2106750;28;20738;-58
2021/04/25 03:29:20;;;;;;;5.03;4.03;;;;;;;;;;2102498;28;20178;-56
2021/04/25 03:30:21;;;;;;;6.80;4.40;;;;;;;;;;2105505;28;20170;-58
2021/04/25 03:31:21;;;;;;;7.97;4.23;;;;;;;;;;2102939;28;20291;-59
2021/04/25 03:32:21;;;;;;;5.03;4.17;;;;;;;;;;2106062;28;20173;-57
2021/04/25 03:33:22;;;;;;;7.30;3.87;;;;;;;;;;2106949;28;20700;-56
2021/04/25 03:34:22;;;;;;;7.33;4.20;;;;;;;;;;2105922;28;20166;-58
2021/04/25 03:35:22;;;;;;;7.70;4.10;;;;;;;;;;2106826;28;20181;-58
2021/04/25 03:36:23;;;;;;;7.17;4.10;;;;;;;;;;2105395;28;20173;-55
2021/04/25 03:37:23;;;;;;;5.30;3.97;;;;;;;;;;2103481;28;20260;-58
2021/04/25 03:38:25;;;;;;;7.27;4.43;;;;;;;;;;2105030;28;20321;-59
2021/04/25 03:39:25;;;;;;;4.73;4.00;;;;;;;;;;2107307;28;20650;-58
2021/04/25 03:40:26;;;;;;;8.13;4.13;;;;;;;;;;2103082;28;20182;-58
2021/04/25 03:41:26;;;;;;;5.10;4.13;;;;;;;;;;2104075;28;20181;-57
2021/04/25 03:42:27;;;;;;;6.27;4.10;;;;;;;;;;2104396;28;20187;-60
2021/04/25 03:43:27;;;;;;;4.87;3.70;;;;;;;;;;2106868;28;20257;-58
2021/04/25 03:44:27;;;;;;;7.67;4.17;;;;;;;;;;2101836;28;20181;-58
2021/04/25 03:45:27;;;;;;;5.97;4.13;;;;;;;;;;2104122;28;20166;-56
2021/04/25 03:46:28;;;;;;;8.40;3.97;;;;;;;;;;2105199;28;20186;-58
2021/04/25 03:47:28;;;;;;;6.73;4.20;;;;;;;;;;2105879;28;20220;-56
2021/04/25 03:48:28;;;;;;;6.13;4.20;;;;;;;;;;2106413;28;20174;-57
2021/04/25 03:49:28;;;;;;;7.17;4.00;;;;;;;;;;2107071;28;20166;-58
2021/04/25 03:50:29;;;;;;;5.37;3.97;;;;;;;;;;2105264;28;20177;-57
2021/04/25 03:51:29;;;;;;;5.00;4.13;;;;;;;;;;2103399;28;20703;-56
2021/04/25 03:52:29;;;;;;;6.57;4.57;;;;;;;;;;2104360;28;20585;-59
2021/04/25 03:53:30;;;;;;;5.27;4.40;;;;;;;;;;2108757;28;20619;-54
2021/04/25 03:54:32;;;;;;;6.73;3.83;;;;;;;;;;2105488;28;20170;-53
2021/04/25 03:55:32;;;;;;;4.77;3.60;;;;;;;;;;2105907;28;20162;-60
2021/04/25 03:56:32;;;;;;;6.20;3.77;;;;;;;;;;2104064;28;20206;-60
2021/04/25 03:57:32;;;;;;;6.67;3.90;;;;;;;;;;2104118;28;20174;-55
2021/04/25 03:58:33;;;;;;;5.63;3.47;;;;;;;;;;2106228;28;20175;-57
2021/04/25 03:59:34;;;;;;;5.90;3.60;;;;;;;;;;2106889;28;20182;-59
2021/04/25 04:00:34;;;;;;;5.17;3.83;;;;;;;;;;2106906;28;20202;-60
2021/04/25 04:01:34;;;;;;;7.57;3.80;;;;;;;;;;2102588;28;20178;-54
2021/04/25 04:02:35;;;;;;;5.10;3.60;;;;;;;;;;2104403;28;20202;-59
2021/04/25 04:03:35;;;;;;;4.30;3.33;;;;;;;;;;2105370;28;20178;-59
2021/04/25 04:04:35;;;;;;;4.27;3.30;;;;;;;;;;2106418;28;20205;-56
2021/04/25 04:05:36;;;;;;;3.80;3.50;;;;;;;;;;2106126;28;20209;-59
2021/04/25 04:06:36;;;;;;;6.47;4.17;;;;;;;;;;2104099;28;20235;-60
2021/04/25 04:07:36;;;;;;;6.33;3.63;;;;;;;;;;2104389;28;20993;-59
2021/04/25 04:08:36;;;;;;;6.47;3.77;;;;;;;;;;2105868;28;20182;-55
2021/04/25 04:09:38;;;;;;;5.20;3.63;;;;;;;;;;2104558;28;20173;-57
2021/04/25 04:10:39;;;;;;;7.63;4.03;;;;;;;;;;2099986;28;20178;-55
2021/04/25 04:11:39;;;;;;;4.03;3.63;;;;;;;;;;2105136;28;20166;-58
2021/04/25 04:12:39;;;;;;;5.17;3.77;;;;;;;;;;2106541;28;20290;-56
2021/04/25 04:13:39;;;;;;;6.97;3.93;;;;;;;;;;2105855;28;20590;-59
2021/04/25 04:14:41;;;;;;;6.00;3.60;;;;;;;;;;2106204;28;20174;-56
2021/04/25 04:15:41;;;;;;;5.83;3.60;;;;;;;;;;2105862;28;20238;-59
2021/04/25 04:16:41;;;;;;;5.83;3.57;;;;;;;;;;2106134;28;20174;-57
2021/04/25 04:17:41;;;;;;;3.73;3.30;;;;;;;;;;2105145;28;20228;-56
2021/04/25 04:18:42;;;;;;;4.57;3.97;;;;;;;;;;2105398;28;20198;-54
2021/04/25 04:19:42;;;;;;;5.77;3.67;;;;;;;;;;2099620;28;20183;-52
2021/04/25 04:20:42;;;;;;;6.37;4.00;;;;;;;;;;2104910;28;20181;-52
2021/04/25 04:21:43;;;;;;;4.63;3.50;;;;;;;;;;2102032;28;20228;-54
2021/04/25 04:22:43;;;;;;;6.40;3.67;;;;;;;;;;2105952;28;20228;-50
2021/04/25 04:23:43;;;;;;;5.20;3.73;;;;;;;;;;2101141;28;20232;-59
2021/04/25 04:24:44;;;;;;;4.00;3.67;;;;;;;;;;2106023;28;20190;-57
2021/04/25 04:25:44;;;;;;;7.67;3.63;;;;;;;;;;2105794;28;20209;-56
2021/04/25 04:26:44;;;;;;;4.07;3.23;;;;;;;;;;2106020;28;20174;-57
2021/04/25 04:27:44;;;;;;;4.27;3.57;;;;;;;;;;2106060;28;20178;-59
2021/04/25 04:28:45;;;;;;;5.27;3.50;;;;;;;;;;2106288;28;20727;-58
2021/04/25 04:29:45;;;;;;;6.70;3.53;;;;;;;;;;2112031;28;20173;-56
2021/04/25 04:30:45;;;;;;;6.00;3.40;;;;;;;;;;2106023;28;20275;-58
2021/04/25 04:31:45;;;;;;;4.13;3.00;;;;;;;;;;2096653;28;20206;-59
2021/04/25 04:32:46;;;;;;;4.33;3.33;;;;;;;;;;2104556;28;20313;-58
2021/04/25 04:33:46;;;;;;;3.30;3.00;;;;;;;;;;2103892;28;20588;-59
2021/04/25 04:34:46;;;;;;;4.33;3.43;;;;;;;;;;2105058;28;20175;-59
2021/04/25 04:35:47;;;;;;;5.00;3.00;;;;;;;;;;2106128;28;20166;-58
2021/04/25 04:36:47;;;;;;;4.00;3.07;;;;;;;;;;2104513;28;20296;-58
2021/04/25 04:37:47;;;;;;;4.00;3.47;;;;;;;;;;2103473;28;20193;-58
2021/04/25 04:38:47;;;;;;;3.60;3.30;;;;;;;;;;2100364;28;20186;-55
2021/04/25 04:39:48;;;;;;;4.17;3.33;;;;;;;;;;2103127;28;20185;-59
2021/04/25 04:40:48;;;;;;;6.23;3.57;;;;;;;;;;2100413;28;20171;-58
2021/04/25 04:41:49;;;;;;;4.13;3.23;;;;;;;;;;2105873;28;20257;-55
2021/04/25 04:42:50;;;;;;;4.73;3.30;;;;;;;;;;2103313;28;20214;-59
2021/04/25 04:43:50;;;;;;;5.47;3.40;;;;;;;;;;2105742;28;20212;-58
2021/04/25 04:44:50;;;;;;;7.33;3.20;;;;;;;;;;2105629;28;20166;-60
2021/04/25 04:45:52;;;;;;;4.07;3.27;;;;;;;;;;2106652;28;20227;-61
2021/04/25 04:46:52;;;;;;;7.23;3.40;;;;;;;;;;2101469;28;20174;-59
2021/04/25 04:47:52;;;;;;;6.80;3.73;;;;;;;;;;2106588;28;20178;-54
2021/04/25 04:48:53;;;;;;;4.17;3.87;;;;;;;;;;2098906;28;20181;-60
2021/04/25 04:49:53;;;;;;;5.27;3.47;;;;;;;;;;2106436;28;20198;-60
2021/04/25 04:50:53;;;;;;;5.20;3.47;;;;;;;;;;2105730;28;20303;-56
2021/04/25 04:51:54;;;;;;;5.87;3.67;;;;;;;;;;2105272;28;20685;-60
2021/04/25 04:52:54;;;;;;;7.60;3.60;;;;;;;;;;2104634;28;20190;-57
2021/04/25 04:53:54;;;;;;;7.10;3.07;;;;;;;;;;2105553;28;20646;-57
2021/04/25 04:54:54;;;;;;;5.53;3.50;;;;;;;;;;2106534;28;20182;-59
2021/04/25 04:55:55;;;;;;;5.33;3.33;;;;;;;;;;2105705;28;20182;-58
2021/04/25 04:56:55;;;;;;;4.20;3.60;;;;;;;;;;2110973;28;20185;-54
2021/04/25 04:57:55;;;;;;;7.60;3.57;;;;;;;;;;2105785;28;20194;-53
2021/04/25 04:58:55;;;;;;;4.97;3.40;;;;;;;;;;2106241;28;20197;-59
2021/04/25 04:59:56;;;;;;;5.73;3.47;;;;;;;;;;2104786;28;20224;-59
2021/04/25 05:00:56;;;;;;;7.53;3.13;;;;;;;;;;2099867;28;20186;-54
2021/04/25 05:01:56;;;;;;;4.57;3.60;;;;;;;;;;2105065;28;20264;-57
2021/04/25 05:02:56;;;;;;;5.50;3.60;;;;;;;;;;2106583;28;20190;-59
2021/04/25 05:03:57;;;;;;;4.70;3.80;;;;;;;;;;2104173;28;20289;-57
2021/04/25 05:04:57;;;;;;;6.57;3.40;;;;;;;;;;2106847;28;20898;-59
2021/04/25 05:05:57;;;;;;;6.87;3.30;;;;;;;;;;2105793;28;20182;-60
2021/04/25 05:06:57;;;;;;;7.17;3.83;;;;;;;;;;2105983;28;20178;-52
2021/04/25 05:07:58;;;;;;;6.50;3.70;;;;;;;;;;2103096;28;20203;-59
2021/04/25 05:08:58;;;;;;;4.00;3.67;;;;;;;;;;2101177;28;20227;-57
2021/04/25 05:09:58;;;;;;;5.30;3.17;;;;;;;;;;2105481;28;20189;-60
2021/04/25 05:10:58;;;;;;;4.80;3.53;;;;;;;;;;2106543;28;20165;-59
2021/04/25 05:11:59;;;;;;;3.70;3.40;;;;;;;;;;2105315;28;20186;-60
2021/04/25 05:12:59;;;;;;;10.43;3.40;;;;;;;;;;2105633;28;20202;-57
2021/04/25 05:13:59;;;;;;;5.07;3.37;;;;;;;;;;2105331;28;20178;-60
2021/04/25 05:14:59;;;;;;;4.40;3.53;;;;;;;;;;2106118;28;20213;-59
2021/04/25 05:16:00;;;;;;;5.33;3.33;;;;;;;;;;2102248;28;20290;-59
2021/04/25 05:17:00;;;;;;;3.83;3.37;;;;;;;;;;2105851;28;20177;-57
2021/04/25 05:18:00;;;;;;;7.63;3.60;;;;;;;;;;2109137;28;20180;-58
2021/04/25 05:19:02;;;;;;;5.80;3.70;;;;;;;;;;2106358;28;20162;-59
2021/04/25 05:20:03;;;;;;;4.20;3.43;;;;;;;;;;2100924;28;20701;-60
2021/04/25 05:21:04;;;;;;;6.33;3.83;;;;;;;;;;2105345;28;20206;-57
2021/04/25 05:22:04;;;;;;;5.70;3.50;;;;;;;;;;2105281;28;20236;-60
2021/04/25 05:23:04;;;;;;;6.60;3.30;;;;;;;;;;2106336;28;20190;-58
2021/04/25 05:24:07;;;;;;;5.37;3.23;;;;;;;;;;2100575;28;20186;-58
2021/04/25 05:25:08;;;;;;;5.17;3.67;;;;;;;;;;2105573;28;20223;-57
2021/04/25 05:26:08;;;;;;;6.40;3.47;;;;;;;;;;2104968;28;20222;-59
2021/04/25 05:27:08;;;;;;;6.33;3.90;;;;;;;;;;2105470;28;20693;-59
2021/04/25 05:28:09;;;;;;;3.77;3.37;;;;;;;;;;2100718;28;20265;-57
2021/04/25 05:29:09;;;;;;;6.70;3.70;;;;;;;;;;2096123;28;20244;-59
2021/04/25 05:30:10;;;;;;;4.53;3.33;;;;;;;;;;2097466;28;20187;-56
2021/04/25 05:31:10;;;;;;;4.80;3.30;;;;;;;;;;2105057;28;20734;-58
2021/04/25 05:32:10;;;;;;;6.60;3.80;;;;;;;;;;2089106;28;20197;-58
2021/04/25 05:33:11;;;;;;;3.97;3.40;;;;;;;;;;2095713;28;20209;-56
2021/04/25 05:34:12;;;;;;;4.03;3.70;;;;;;;;;;2101221;28;20257;-58
2021/04/25 05:35:12;;;;;;;4.50;4.00;;;;;;;;;;2100443;28;20167;-53
2021/04/25 05:36:12;;;;;;;5.33;3.97;;;;;;;;;;2105023;28;20213;-58
2021/04/25 05:37:13;;;;;;;3.80;3.50;;;;;;;;;;2105094;28;20833;-57
2021/04/25 05:38:13;;;;;;;8.03;3.93;;;;;;;;;;2105867;28;20568;-55
2021/04/25 05:39:13;;;;;;;4.87;3.30;;;;;;;;;;2104431;28;20201;-59
2021/04/25 05:40:14;;;;;;;4.57;4.20;;;;;;;;;;2105801;28;20189;-57
2021/04/25 05:41:15;;;;;;;5.00;3.50;;;;;;;;;;2104868;28;20185;-57
2021/04/25 05:42:15;;;;;;;3.97;3.60;;;;;;;;;;2105755;28;20711;-57
2021/04/25 05:43:15;;;;;;;5.60;3.53;;;;;;;;;;2104443;28;20683;-55
2021/04/25 05:44:15;;;;;;;5.73;3.87;;;;;;;;;;2103513;28;20213;-58
2021/04/25 05:45:21;;;;;;;5.13;3.93;;;;;;;;;;2105247;28;20205;-54
2021/04/25 05:46:22;;;;;;;7.33;3.90;;;;;;;;;;2092926;28;20691;-58
2021/04/25 05:47:22;;;;;;;6.47;3.87;;;;;;;;;;2088497;28;20282;-59
2021/04/25 05:48:22;;;;;;;8.47;4.07;;;;;;;;;;2105642;28;20634;-55
2021/04/25 05:49:23;;;;;;;9.80;4.40;;;;;;;;;;2104844;28;20206;-54
2021/04/25 05:50:25;;;;;;;6.17;3.77;;;;;;;;;;2106157;28;20185;-58
2021/04/25 05:51:25;;;;;;;5.27;3.60;;;;;;;;;;2104462;28;20181;-57
2021/04/25 05:52:26;;;;;;;5.40;3.77;;;;;;;;;;2105714;28;20170;-55
2021/04/25 05:53:26;;;;;;;4.17;3.77;;;;;;;;;;2102869;28;20167;-58
2021/04/25 05:54:26;;;;;;;5.30;4.23;;;;;;;;;;2105954;28;20257;-56
2021/04/25 05:55:27;;;;;;;6.07;3.80;;;;;;;;;;2104630;28;20166;-56
2021/04/25 05:56:27;;;;;;;4.37;3.97;;;;;;;;;;2097072;28;20179;-59
2021/04/25 05:57:28;;;;;;;8.57;4.30;;;;;;;;;;2105725;28;20170;-58
2021/04/25 05:58:28;;;;;;;6.03;3.70;;;;;;;;;;2105167;28;20757;-58
2021/04/25 05:59:28;;;;;;;7.43;3.50;;;;;;;;;;2102939;28;20685;-57
2021/04/25 06:00:30;;;;;;;6.40;3.67;;;;;;;;;;2105368;28;20174;-59
2021/04/25 06:01:30;;;;;;;4.27;3.63;;;;;;;;;;2106190;28;20172;-57
2021/04/25 06:02:30;;;;;;;5.33;4.00;;;;;;;;;;2103573;28;20173;-59